»·PEaware :: ASA361 KSFO-KSEA

ASA361 :: KSFO-KSEA

FLIGHT INFORMATION

Flight Status: Arrived
Operator:
Alaska Airlines
More flights by this operator :: More flights under this callsign
Pilot: Jac C. (16067)
Aircraft: BOEING 737-800
(B738)
More flights by this aircraft type
Origin: KSFO San Francisco Intl
United States
Destination: KSEA Seattle-Tacoma Intl
United States
More flights between these airports :: More routes between these airports
Route: +TRUKN2 DEDHD RBL LMT HAWKZ7
File this flight plan on PilotEdge
Remarks: PBN / A1B1C1D1S1S2 DOF / 181012 REG / N806SB EET / KZSE0035 OPR / ASA PER / C RMK / TCAS SIMBRIEF
Altitude:
(Current/Filed)
34,000ft
Speed:
(Current/Filed)
459kts
Departed: 11-Oct-18 05:26 PM
Arrived: 11-Oct-18 07:16 PM
Distance/Time
Traveled:
590nm/1:50
Distance/Time
To Go:
Arrived

Flight Plot

Page will automatically refresh every two minutes.

Flight plan parsing failed; only flown route is shown


Map Options




Map Legend


Flown Route
Filed Route
Departure Airport
Arrival Airport
Navaid (VOR, NDB)
Fix

Horizontal Profiles

Position Reports

Time Latitude Longitude Heading Altitude Ground
Speed
11-Oct-18 16:53 37.616753 -122.380553 299 17ft 0kts
11-Oct-18 16:54 37.616753 -122.380553 299 17ft 0kts
11-Oct-18 16:55 37.616753 -122.380553 299 17ft 0kts
11-Oct-18 16:56 37.616753 -122.380553 299 17ft 0kts
11-Oct-18 16:57 37.616753 -122.380553 299 17ft 0kts
11-Oct-18 16:58 37.616753 -122.380553 299 17ft 0kts
11-Oct-18 16:59 37.616753 -122.380553 299 17ft 0kts
11-Oct-18 17:00 37.616753 -122.380553 299 16ft 0kts
11-Oct-18 17:01 37.616753 -122.380553 299 17ft 0kts
11-Oct-18 17:02 37.616753 -122.380553 299 17ft 0kts
11-Oct-18 17:03 37.616753 -122.380553 299 17ft 0kts
11-Oct-18 17:04 37.616753 -122.380553 299 17ft 0kts
11-Oct-18 17:05 37.616753 -122.380553 299 17ft 0kts
11-Oct-18 17:06 37.616753 -122.380553 299 17ft 0kts
11-Oct-18 17:07 37.616753 -122.380553 299 17ft 0kts
11-Oct-18 17:08 37.616753 -122.380553 299 17ft 0kts
11-Oct-18 17:09 37.616753 -122.380553 299 17ft 0kts
11-Oct-18 17:10 37.616753 -122.380553 299 17ft 0kts
11-Oct-18 17:11 37.616753 -122.380553 299 17ft 0kts
11-Oct-18 17:12 37.616753 -122.380553 299 17ft 0kts
11-Oct-18 17:13 37.616753 -122.380553 299 17ft 0kts
11-Oct-18 17:14 37.616753 -122.380553 299 17ft 0kts
11-Oct-18 17:15 37.616753 -122.380553 299 17ft 0kts
11-Oct-18 17:16 37.616753 -122.380553 299 17ft 0kts
11-Oct-18 17:17 37.616753 -122.380553 299 17ft 0kts
11-Oct-18 17:18 37.616753 -122.380553 299 17ft 0kts
11-Oct-18 17:19 37.616753 -122.380553 299 17ft 0kts
11-Oct-18 17:20 37.616753 -122.380553 299 17ft 0kts
11-Oct-18 17:21 37.616654 -122.380290 282 16ft 2kts
11-Oct-18 17:22 37.616786 -122.379588 228 17ft 2kts
11-Oct-18 17:23 37.617003 -122.379385 206 16ft 0kts
11-Oct-18 17:24 37.617003 -122.379385 206 16ft 0kts
11-Oct-18 17:25 37.616670 -122.379600 207 16ft 6kts
11-Oct-18 17:26 37.613185 -122.381924 206 16ft 17kts
11-Oct-18 17:27 37.608830 -122.384665 140 16ft 12kts
11-Oct-18 17:28 37.613016 -122.379533 28 17ft 94kts
11-Oct-18 17:29 37.646977 -122.344760 53 1302ft 187kts
11-Oct-18 17:30 37.680614 -122.282652 51 2378ft 261kts
11-Oct-18 17:31 37.727328 -122.213775 29 5278ft 265kts
11-Oct-18 17:32 37.797088 -122.198094 4 7961ft 270kts
11-Oct-18 17:33 37.873118 -122.188982 9 10236ft 289kts
11-Oct-18 17:34 37.958594 -122.174978 10 12039ft 322kts
11-Oct-18 17:35 38.043923 -122.160958 10 14353ft 332kts
11-Oct-18 17:36 38.132535 -122.146349 10 16632ft 341kts
11-Oct-18 17:37 38.218820 -122.132081 10 18633ft 349kts
11-Oct-18 17:38 38.314719 -122.116180 9 20612ft 358kts
11-Oct-18 17:39 38.415280 -122.117717 358 22435ft 371kts
11-Oct-18 17:40 38.518701 -122.125209 359 24134ft 379kts
11-Oct-18 17:41 38.598601 -122.130726 359 25328ft 384kts
11-Oct-18 17:56 40.211850 -122.209316 16 33917ft 393kts
11-Oct-18 17:57 40.319314 -122.183321 16 33913ft 394kts
11-Oct-18 17:58 40.412640 -122.160706 15 33912ft 394kts
11-Oct-18 17:59 40.519877 -122.134667 15 33911ft 394kts
11-Oct-18 18:00 40.627155 -122.108546 16 33913ft 394kts
11-Oct-18 18:01 40.734754 -122.082254 15 33908ft 394kts
11-Oct-18 18:02 40.842353 -122.055942 16 33901ft 394kts
11-Oct-18 18:03 40.949838 -122.029510 16 33897ft 394kts
11-Oct-18 18:04 41.056717 -122.003167 15 33901ft 391kts
11-Oct-18 18:05 41.177459 -121.973275 14 33953ft 389kts
11-Oct-18 18:06 41.249130 -121.955487 14 34016ft 389kts
11-Oct-18 18:07 41.354788 -121.929196 14 34054ft 389kts
11-Oct-18 18:08 41.460726 -121.902749 14 34057ft 389kts
11-Oct-18 18:09 41.566757 -121.876197 14 34060ft 389kts
11-Oct-18 18:10 41.661490 -121.852399 14 34073ft 389kts
11-Oct-18 18:11 41.767446 -121.825693 14 34094ft 389kts
11-Oct-18 18:12 41.873439 -121.798878 14 34093ft 389kts
11-Oct-18 18:13 41.996061 -121.767742 14 34092ft 389kts
11-Oct-18 18:14 42.076116 -121.747346 14 34090ft 389kts
11-Oct-18 18:15 42.176114 -121.733960 358 34116ft 400kts
11-Oct-18 18:16 42.277353 -121.755891 356 34100ft 401kts
11-Oct-18 18:17 42.379528 -121.779059 356 34102ft 401kts
11-Oct-18 18:18 42.484583 -121.803010 356 34099ft 402kts
11-Oct-18 18:19 42.588414 -121.826771 356 34097ft 402kts
11-Oct-18 18:20 42.695582 -121.851387 356 34097ft 401kts
11-Oct-18 18:21 42.805430 -121.876710 356 34096ft 402kts
11-Oct-18 18:22 42.915233 -121.902100 356 34094ft 401kts
11-Oct-18 18:23 43.025360 -121.927593 354 34091ft 404kts
11-Oct-18 18:24 43.133477 -121.952786 353 34096ft 405kts
11-Oct-18 18:25 43.230478 -121.975487 353 34087ft 405kts
11-Oct-18 18:26 43.327366 -121.998228 353 34100ft 405kts
11-Oct-18 18:27 43.433842 -122.023301 353 34114ft 405kts
11-Oct-18 18:28 43.542868 -122.049060 353 34137ft 405kts
11-Oct-18 18:29 43.651672 -122.074852 353 34136ft 405kts
11-Oct-18 18:30 43.760163 -122.100661 353 34133ft 405kts
11-Oct-18 18:31 43.867904 -122.126382 353 34133ft 405kts
11-Oct-18 18:32 43.972764 -122.151505 353 34132ft 405kts
11-Oct-18 18:33 44.078127 -122.176838 353 34128ft 405kts
11-Oct-18 18:34 44.156833 -122.195819 353 34135ft 405kts
11-Oct-18 18:35 44.241311 -122.216251 353 34131ft 405kts
11-Oct-18 18:36 44.303424 -122.231312 353 34128ft 405kts
11-Oct-18 18:37 44.394090 -122.253363 353 34112ft 405kts
11-Oct-18 18:38 44.501754 -122.279645 353 34092ft 405kts
11-Oct-18 18:39 44.605870 -122.305165 353 34099ft 405kts
11-Oct-18 18:40 44.711210 -122.331082 353 34104ft 405kts
11-Oct-18 18:41 44.802620 -122.353653 353 34114ft 405kts
11-Oct-18 18:42 44.911131 -122.380539 353 34114ft 405kts
11-Oct-18 18:43 44.979240 -122.397462 353 34114ft 405kts
11-Oct-18 18:44 45.085393 -122.423879 351 34112ft 404kts
11-Oct-18 18:45 45.184036 -122.448579 351 34121ft 404kts
11-Oct-18 18:46 45.260982 -122.467910 351 34116ft 404kts
11-Oct-18 18:47 45.359678 -122.492754 351 34106ft 403kts
11-Oct-18 18:48 45.460241 -122.518164 351 34104ft 404kts
11-Oct-18 18:49 45.556697 -122.542618 351 34101ft 404kts
11-Oct-18 18:50 45.657491 -122.568276 351 34092ft 385kts
11-Oct-18 18:51 45.752538 -122.592530 351 34097ft 385kts
11-Oct-18 18:52 45.851405 -122.616945 351 32747ft 386kts
11-Oct-18 18:53 45.943337 -122.639691 351 30201ft 387kts
11-Oct-18 18:54 46.041292 -122.664104 350 27539ft 395kts
11-Oct-18 18:55 46.126831 -122.684357 352 25814ft 374kts
11-Oct-18 18:56 46.213701 -122.701299 352 24041ft 358kts
11-Oct-18 18:57 46.297539 -122.717873 352 22317ft 344kts
11-Oct-18 18:58 46.364138 -122.724373 359 20968ft 342kts
11-Oct-18 18:59 46.460295 -122.727392 358 19033ft 345kts
11-Oct-18 19:00 46.553056 -122.730706 358 17057ft 338kts
11-Oct-18 19:01 46.631700 -122.733536 358 15445ft 325kts
11-Oct-18 19:02 46.719746 -122.736718 358 13722ft 312kts
11-Oct-18 19:03 46.801761 -122.715781 32 12077ft 305kts
11-Oct-18 19:04 46.865256 -122.640040 40 10827ft 282kts
11-Oct-18 19:05 46.919870 -122.563861 43 9801ft 269kts
11-Oct-18 19:06 46.969425 -122.488498 43 8635ft 267kts
11-Oct-18 19:07 47.025478 -122.431138 26 7633ft 259kts
11-Oct-18 19:08 47.087155 -122.379837 28 6620ft 251kts
11-Oct-18 19:09 47.125865 -122.347345 24 6021ft 236kts
11-Oct-18 19:10 47.169840 -122.325933 16 5537ft 205kts
11-Oct-18 19:11 47.205382 -122.313700 1 4901ft 188kts
11-Oct-18 19:12 47.248549 -122.312715 0 4093ft 173kts
11-Oct-18 19:13 47.294047 -122.312295 0 3210ft 163kts
11-Oct-18 19:14 47.336239 -122.311963 359 2398ft 145kts
11-Oct-18 19:15 47.376075 -122.311665 359 1612ft 146kts
11-Oct-18 19:16 47.414856 -122.311460 359 872ft 146kts
11-Oct-18 19:17 47.450757 -122.311112 0 420ft 68kts
11-Oct-18 19:18 47.455742 -122.307334 102 431ft 13kts
11-Oct-18 19:19 47.451624 -122.306251 179 420ft 21kts
11-Oct-18 19:20 47.450109 -122.303666 90 416ft 10kts
11-Oct-18 19:21 47.449126 -122.300761 169 406ft 1kts
11-Oct-18 19:22 47.448891 -122.300906 215 408ft 2kts

Navigation Log

Ident Type
Flight plan parsing failed, navigation log unavailable